Aérodrome :
LOGIN :

S'inscrire | Disclaimer

   EN    FR    IT 

 










Légende :    VFR   VFR Marginal   IFR   IFR Intensif   IFR Très Intensif
Visi : 
Plafond : 
>= 8 km
>= 3000ft
5 à 8 km
1000 à 3000 ft
1500m à 5 km
500 à 1000 ft
800 à 1500m
200 à 500 ft
< 800m
< 200 ft
Symboles :   Orages  Brouillard  Fortes neiges  Fortes précipitations  Vent > 20 kt
SIGMETs :   Divers  Orages  Givrage  Turbulence  Onde Orograph.  Cendres Volcan.






- Altitude de l'aérodrome : 322 ft


LHSN - Szolnok

DERNIER METAR :
  • 101015Z 07002KT CAVOK 19/05 Q1021 NOSIG RMK BLU

METARs EXPIRÉS :
  • 100945Z 09002KT CAVOK 19/06 Q1022 NOSIG RMK BLU
  • 100915Z 07006KT 040V140 CAVOK 18/05 Q1022 NOSIG RMK BLU
  • 100845Z 05006KT 020V110 CAVOK 18/05 Q1022 NOSIG RMK BLU
  • 100815Z 06008KT 020V080 CAVOK 18/06 Q1021 NOSIG RMK BLU
  • 100745Z 07010KT 030V100 CAVOK 17/05 Q1021 NOSIG RMK BLU

TAF TAF LHSN
Valide du 10 à 09h jusqu'au 10 à 18h UTC


100815Z 1009/1018 06010KT CAVOK
BECMG 1012/1014 08005KT



MET'MAP, la Météo Aéronautique d'un coup d'oeil ! - Copyright ORBIFLY Décembre 2007 - Disclaimer

ORBIFLY MET'MAP TEAM :

Programmation & Développement : Alexandra Zaïnal
Sur une idée originale de : Baudouin d'Aumeries
Assistance à la programmation : Marc-Olivier Méhu
Soutien technique & logistique : Manuel Goepfert

Contact : metmap@orbifly.com




SOURCES & CREDITS :

   NOAA